createdAt,value
2023-03-30T00:02:22.611Z,1.67
2023-03-30T00:04:51.481Z,1.58
2023-03-30T00:07:20.655Z,1.80
2023-03-30T00:09:49.087Z,1.58
2023-03-30T00:12:20.833Z,1.52
2023-03-30T00:14:51.310Z,1.40
2023-03-30T00:17:19.546Z,1.40
2023-03-30T00:19:48.561Z,1.73
2023-03-30T00:22:16.813Z,1.45
2023-03-30T00:24:45.009Z,1.70
2023-03-30T00:27:13.220Z,1.63
2023-03-30T00:29:42.504Z,1.30
2023-03-30T00:32:12.450Z,1.50
2023-03-30T00:34:41.103Z,2.00
2023-03-30T00:37:09.432Z,1.38
2023-03-30T00:39:37.674Z,1.60
2023-03-30T00:42:06.145Z,1.45
2023-03-30T00:45:23.501Z,1.50
2023-03-30T00:47:59.248Z,1.42
2023-03-30T00:50:35.013Z,1.58
2023-03-30T00:53:10.032Z,1.58
2023-03-30T00:55:40.609Z,1.40
2023-03-30T00:58:10.915Z,1.55
2023-03-30T01:00:40.461Z,1.70
2023-03-30T01:03:16.034Z,1.33
2023-03-30T01:05:46.220Z,1.27
2023-03-30T01:08:16.609Z,1.25
2023-03-30T01:10:45.673Z,1.50
2023-03-30T01:13:15.401Z,1.30
2023-03-30T01:15:54.784Z,1.45
2023-03-30T01:18:36.711Z,1.83
2023-03-30T01:21:36.076Z,1.50
2023-03-30T01:24:42.731Z,1.20
2023-03-30T01:27:25.000Z,1.58
2023-03-30T01:30:15.306Z,1.42
2023-03-30T01:33:04.190Z,1.27
2023-03-30T01:35:59.646Z,1.20
2023-03-30T01:39:01.947Z,1.42
2023-03-30T01:41:36.950Z,1.30
2023-03-30T01:44:13.259Z,1.40
2023-03-30T01:46:49.102Z,1.10
2023-03-30T01:49:25.136Z,1.85
2023-03-30T01:52:02.310Z,1.30
2023-03-30T01:54:34.102Z,1.30
2023-03-30T01:57:09.668Z,1.33
2023-03-30T01:59:42.129Z,1.33
2023-03-30T02:02:12.544Z,1.40
2023-03-30T02:04:45.628Z,1.40
2023-03-30T02:07:18.466Z,1.42
2023-03-30T02:09:50.233Z,1.38
2023-03-30T02:12:22.546Z,1.50
2023-03-30T02:14:51.312Z,1.30
2023-03-30T02:17:22.855Z,1.52
2023-03-30T02:19:51.952Z,1.40
2023-03-30T02:22:21.733Z,1.52
2023-03-30T02:24:53.996Z,1.73
2023-03-30T02:27:25.102Z,1.40
2023-03-30T02:29:54.593Z,1.40
2023-03-30T02:32:26.717Z,1.08
2023-03-30T02:35:16.553Z,1.30
2023-03-30T02:37:59.231Z,1.55
2023-03-30T02:40:37.715Z,1.75
2023-03-30T02:43:26.868Z,1.48
2023-03-30T02:46:11.230Z,1.92
2023-03-30T02:48:46.785Z,1.52
2023-03-30T02:51:34.649Z,1.60
2023-03-30T02:54:33.544Z,1.77
2023-03-30T02:57:41.383Z,1.60
2023-03-30T03:00:33.897Z,2.17
2023-03-30T03:03:11.157Z,1.40
2023-03-30T03:05:43.058Z,1.63
2023-03-30T03:08:15.800Z,1.50
2023-03-30T03:10:45.711Z,1.83
2023-03-30T03:13:16.213Z,1.77
2023-03-30T03:15:49.609Z,1.83
2023-03-30T03:18:18.626Z,1.50
2023-03-30T03:20:47.575Z,1.67
2023-03-30T03:23:15.934Z,2.17
2023-03-30T03:25:49.473Z,1.55
2023-03-30T03:28:20.523Z,1.92
2023-03-30T03:30:58.382Z,2.05
2023-03-30T03:33:27.294Z,1.33
2023-03-30T03:36:08.696Z,1.75
2023-03-30T03:38:41.465Z,2.40
2023-03-30T03:41:10.050Z,1.52
2023-03-30T03:43:39.771Z,2.13
2023-03-30T03:46:09.625Z,2.15
2023-03-30T03:48:38.538Z,1.77
2023-03-30T03:51:07.251Z,1.60
2023-03-30T03:53:37.255Z,1.90
2023-03-30T03:56:09.686Z,2.08
2023-03-30T03:58:37.993Z,1.90
2023-03-30T04:01:09.675Z,2.50
2023-03-30T04:03:42.121Z,2.60
2023-03-30T04:06:10.475Z,3.00
2023-03-30T04:08:39.177Z,3.00
2023-03-30T04:11:20.045Z,3.90
2023-03-30T04:14:14.245Z,3.17
2023-03-30T04:17:23.819Z,3.33
2023-03-30T04:20:19.486Z,2.83
2023-03-30T04:23:01.820Z,2.70
2023-03-30T04:25:49.585Z,2.72
2023-03-30T04:28:36.999Z,3.53
2023-03-30T04:31:36.065Z,3.17
2023-03-30T04:34:16.734Z,2.60
2023-03-30T04:37:05.079Z,2.58
2023-03-30T04:39:33.259Z,2.85
2023-03-30T04:42:02.718Z,3.08
2023-03-30T04:44:57.833Z,2.38
2023-03-30T04:47:44.798Z,2.70
2023-03-30T04:50:26.738Z,2.50
2023-03-30T04:53:14.935Z,2.67
2023-03-30T04:56:06.761Z,2.72
2023-03-30T05:01:46.891Z,2.92
2023-03-30T05:04:53.746Z,3.00
2023-03-30T05:08:02.027Z,3.22
2023-03-30T05:10:47.030Z,3.70
2023-03-30T05:13:34.855Z,4.10
2023-03-30T05:16:22.725Z,3.70
2023-03-30T05:18:51.729Z,3.75
2023-03-30T05:21:38.378Z,3.08
2023-03-30T05:24:22.895Z,3.65
2023-03-30T05:27:14.601Z,2.83
2023-03-30T05:30:08.274Z,2.85
2023-03-30T05:33:10.060Z,3.40
2023-03-30T05:36:04.660Z,2.72
2023-03-30T05:38:58.887Z,3.30
2023-03-30T05:41:48.423Z,2.97
2023-03-30T05:44:22.620Z,3.20
2023-03-30T05:46:51.166Z,2.92
2023-03-30T05:49:42.464Z,2.83
2023-03-30T05:52:19.281Z,3.45
2023-03-30T05:55:03.014Z,2.90
2023-03-30T05:57:51.270Z,2.80
2023-03-30T06:00:44.011Z,2.70
2023-03-30T06:03:22.209Z,3.00
2023-03-30T06:05:51.015Z,2.70
2023-03-30T06:08:22.624Z,2.20
2023-03-30T06:10:57.190Z,3.13
2023-03-30T06:13:29.353Z,2.63
2023-03-30T06:15:58.748Z,2.70
2023-03-30T06:18:29.176Z,2.90
2023-03-30T06:21:09.578Z,2.88
2023-03-30T06:23:55.086Z,2.80
2023-03-30T06:26:26.546Z,3.22
2023-03-30T06:28:56.550Z,3.00
2023-03-30T06:31:25.437Z,2.80
2023-03-30T06:34:13.521Z,2.65
2023-03-30T06:36:44.438Z,2.47
2023-03-30T06:39:17.205Z,2.80
2023-03-30T06:41:45.863Z,2.83
2023-03-30T06:44:34.455Z,3.42
2023-03-30T06:47:13.082Z,2.80
2023-03-30T06:49:42.224Z,3.00
2023-03-30T06:52:17.534Z,3.03
2023-03-30T06:54:46.600Z,3.30
2023-03-30T06:57:15.670Z,3.15
2023-03-30T06:59:45.714Z,3.47
2023-03-30T07:02:23.021Z,2.85
2023-03-30T07:05:06.909Z,3.30
2023-03-30T07:07:47.767Z,2.75
2023-03-30T07:10:16.346Z,2.95
2023-03-30T07:12:46.411Z,2.80
2023-03-30T07:15:17.638Z,2.88
2023-03-30T07:17:46.683Z,2.78
2023-03-30T07:20:16.045Z,2.70
2023-03-30T07:23:11.771Z,2.70
2023-03-30T07:25:41.910Z,2.42
2023-03-30T07:28:19.647Z,2.33
2023-03-30T07:30:49.860Z,2.40
2023-03-30T07:33:21.830Z,2.80
2023-03-30T07:35:50.964Z,2.78
2023-03-30T07:38:24.272Z,2.50
2023-03-30T07:40:55.311Z,2.47
2023-03-30T07:43:27.045Z,2.80
2023-03-30T07:45:59.147Z,2.38
2023-03-30T07:48:35.311Z,3.10
2023-03-30T07:51:05.225Z,2.67
2023-03-30T07:53:36.746Z,2.28
2023-03-30T07:56:11.611Z,2.35
2023-03-30T07:58:47.721Z,2.30
2023-03-30T08:01:19.569Z,2.15
2023-03-30T08:04:07.439Z,2.40
2023-03-30T08:06:37.927Z,2.65
2023-03-30T08:09:06.354Z,2.10
2023-03-30T08:11:36.092Z,2.50
2023-03-30T08:14:04.728Z,2.45
2023-03-30T08:16:34.482Z,2.00
2023-03-30T08:19:03.024Z,2.20
2023-03-30T08:21:31.228Z,2.30
2023-03-30T08:23:59.510Z,1.92
2023-03-30T08:26:28.297Z,2.00
2023-03-30T08:28:56.936Z,2.78
2023-03-30T08:31:25.309Z,2.78
2023-03-30T08:33:55.264Z,2.08
2023-03-30T08:36:23.782Z,2.55
2023-03-30T08:38:52.268Z,2.25
2023-03-30T08:41:48.306Z,2.33
2023-03-30T08:44:24.689Z,2.35
2023-03-30T08:46:53.506Z,2.65
2023-03-30T08:49:23.397Z,2.25
2023-03-30T08:51:55.339Z,2.42
2023-03-30T08:54:25.918Z,1.92
2023-03-30T08:57:02.175Z,2.05
2023-03-30T08:59:37.976Z,2.47
2023-03-30T09:02:17.209Z,2.28
2023-03-30T09:05:00.767Z,2.25
2023-03-30T09:07:33.041Z,2.13
2023-03-30T09:10:01.938Z,1.90
2023-03-30T09:12:38.770Z,2.40
2023-03-30T09:15:12.443Z,3.42
2023-03-30T09:17:45.028Z,2.30
2023-03-30T09:20:21.394Z,2.17
2023-03-30T09:22:51.075Z,1.95
2023-03-30T09:25:21.914Z,2.63
2023-03-30T09:28:02.062Z,2.05
2023-03-30T09:30:36.384Z,1.98
2023-03-30T09:33:09.957Z,2.28
2023-03-30T09:35:42.526Z,2.28
2023-03-30T09:38:13.385Z,2.30
2023-03-30T09:41:01.046Z,2.10
2023-03-30T09:43:35.119Z,1.85
2023-03-30T09:46:08.082Z,2.33
2023-03-30T09:48:41.500Z,2.15
2023-03-30T09:51:19.004Z,2.40
2023-03-30T09:53:49.465Z,1.80
2023-03-30T09:56:29.659Z,2.30
2023-03-30T09:58:57.918Z,2.13
2023-03-30T10:01:38.915Z,2.22
2023-03-30T10:04:10.534Z,1.95
2023-03-30T10:06:48.402Z,1.92
2023-03-30T10:09:18.805Z,2.10
2023-03-30T10:11:49.518Z,2.53
2023-03-30T10:14:29.041Z,2.30
2023-03-30T10:16:59.127Z,2.97
2023-03-30T10:19:27.912Z,2.20
2023-03-30T10:21:58.919Z,2.28
2023-03-30T10:24:29.454Z,2.47
2023-03-30T10:26:59.012Z,1.98
2023-03-30T10:29:29.592Z,2.42
2023-03-30T10:32:02.147Z,2.17
2023-03-30T10:34:37.590Z,2.40
2023-03-30T10:37:12.777Z,2.92
2023-03-30T10:39:43.686Z,2.50
2023-03-30T10:42:17.207Z,2.33
2023-03-30T10:44:50.493Z,2.85
2023-03-30T10:47:37.168Z,2.70
2023-03-30T10:50:13.601Z,2.60
2023-03-30T10:52:59.103Z,2.70
2023-03-30T10:55:35.604Z,2.67
2023-03-30T10:58:14.114Z,2.35
2023-03-30T11:01:02.284Z,2.28
2023-03-30T11:03:32.931Z,2.45
2023-03-30T11:06:10.105Z,2.67
2023-03-30T11:08:42.582Z,2.65
2023-03-30T11:11:17.951Z,3.85
2023-03-30T11:13:51.017Z,2.47
2023-03-30T11:16:23.196Z,2.35
2023-03-30T11:18:58.315Z,2.40
2023-03-30T11:21:32.144Z,2.20
2023-03-30T11:24:08.899Z,2.20
2023-03-30T11:26:40.831Z,2.35
2023-03-30T11:29:25.730Z,2.10
2023-03-30T11:32:09.057Z,2.50
2023-03-30T11:34:47.258Z,3.45
2023-03-30T11:37:24.807Z,3.60
2023-03-30T11:40:04.284Z,3.10
2023-03-30T11:42:33.543Z,3.00
2023-03-30T11:45:02.871Z,2.83
2023-03-30T11:47:44.322Z,2.97
2023-03-30T11:50:31.680Z,2.63
2023-03-30T11:53:17.624Z,2.55
2023-03-30T11:55:57.720Z,2.22
2023-03-30T11:58:35.563Z,3.15
2023-03-30T12:01:19.656Z,3.10
2023-03-30T12:03:51.128Z,2.45
2023-03-30T12:09:04.731Z,2.97
2023-03-30T12:11:39.666Z,3.08
2023-03-30T12:14:27.747Z,3.28
2023-03-30T12:17:01.326Z,2.78
2023-03-30T12:19:49.188Z,2.40
2023-03-30T12:22:30.395Z,2.53
2023-03-30T12:25:07.378Z,2.67
2023-03-30T12:27:54.245Z,2.58
2023-03-30T12:30:27.405Z,2.72
2023-03-30T12:33:02.433Z,2.90
2023-03-30T12:35:56.695Z,2.55
2023-03-30T12:38:27.725Z,2.72
2023-03-30T12:41:14.594Z,2.10
2023-03-30T12:44:21.128Z,2.28
2023-03-30T12:47:06.870Z,2.45
2023-03-30T12:49:48.413Z,2.25
2023-03-30T12:52:23.929Z,2.20
2023-03-30T12:55:14.578Z,2.30
2023-03-30T12:57:58.918Z,2.20
2023-03-30T13:00:57.732Z,2.35
2023-03-30T13:03:36.735Z,2.15
2023-03-30T13:06:07.318Z,1.98
2023-03-30T13:08:39.454Z,2.17
2023-03-30T13:11:12.764Z,2.10
2023-03-30T13:13:54.471Z,1.73
2023-03-30T13:17:06.235Z,2.13
2023-03-30T13:19:51.683Z,1.70
2023-03-30T13:22:30.401Z,1.55
2023-03-30T13:25:02.285Z,2.30
2023-03-30T13:27:34.216Z,1.90
2023-03-30T13:30:06.537Z,2.22
2023-03-30T13:32:56.410Z,2.28
2023-03-30T13:35:42.104Z,2.03
2023-03-30T13:38:50.573Z,1.40
2023-03-30T13:41:31.797Z,1.52
2023-03-30T13:44:15.385Z,1.55
2023-03-30T13:46:50.707Z,1.27
2023-03-30T13:49:36.032Z,1.20
2023-03-30T13:52:10.999Z,1.55
2023-03-30T13:54:42.066Z,1.50
2023-03-30T13:57:12.833Z,1.80
2023-03-30T13:59:44.814Z,1.73
2023-03-30T14:02:16.900Z,1.60
2023-03-30T14:04:45.711Z,1.40
2023-03-30T14:07:22.105Z,1.33
2023-03-30T14:10:07.350Z,1.58
2023-03-30T14:12:39.432Z,1.30
2023-03-30T14:15:18.143Z,1.30
2023-03-30T14:17:52.527Z,1.55
2023-03-30T14:20:40.788Z,1.50
2023-03-30T14:23:17.074Z,1.50
2023-03-30T14:25:46.257Z,1.35
2023-03-30T14:28:16.341Z,1.60
2023-03-30T14:30:52.211Z,1.48
2023-03-30T14:33:20.986Z,1.60
2023-03-30T14:35:51.572Z,1.90
2023-03-30T14:38:24.003Z,1.83
2023-03-30T14:40:53.440Z,2.20
2023-03-30T14:43:24.726Z,1.70
2023-03-30T14:45:54.702Z,2.03
2023-03-30T14:48:28.178Z,2.10
2023-03-30T14:50:56.864Z,2.40
2023-03-30T14:53:29.102Z,2.00
2023-03-30T14:56:00.748Z,2.97
2023-03-30T15:01:01.463Z,1.77
2023-03-30T15:03:34.917Z,1.75
2023-03-30T15:06:04.751Z,2.63
2023-03-30T15:08:39.513Z,2.58
2023-03-30T15:11:10.762Z,2.30
2023-03-30T15:13:41.807Z,2.63
2023-03-30T15:16:13.786Z,3.10
2023-03-30T15:18:42.609Z,2.47
2023-03-30T15:21:12.206Z,2.83
2023-03-30T15:23:45.799Z,3.17
2023-03-30T15:26:14.442Z,3.20
2023-03-30T15:28:48.030Z,3.00
2023-03-30T15:31:17.430Z,3.20
2023-03-30T15:33:47.819Z,3.08
2023-03-30T15:36:20.641Z,3.35
2023-03-30T15:38:51.981Z,3.42
2023-03-30T15:41:23.696Z,3.88
2023-03-30T15:43:59.938Z,3.60
2023-03-30T15:46:28.965Z,2.97
2023-03-30T15:48:59.949Z,3.25
2023-03-30T15:51:33.173Z,3.10
2023-03-30T15:54:05.574Z,3.40
2023-03-30T15:56:38.793Z,2.92
2023-03-30T15:59:14.060Z,3.05
2023-03-30T16:01:45.679Z,3.30
2023-03-30T16:06:46.696Z,3.08
2023-03-30T16:09:17.077Z,3.65
2023-03-30T16:11:46.908Z,3.13
2023-03-30T16:14:20.256Z,3.28
2023-03-30T16:16:49.492Z,3.65
2023-03-30T16:19:20.876Z,3.40
2023-03-30T16:21:49.839Z,3.80
2023-03-30T16:24:19.433Z,3.72
2023-03-30T16:26:47.898Z,3.40
2023-03-30T16:29:21.478Z,3.47
2023-03-30T16:31:50.985Z,3.30
2023-03-30T16:34:19.776Z,3.33
2023-03-30T16:36:48.077Z,3.70
2023-03-30T16:39:20.548Z,4.10
2023-03-30T16:41:49.597Z,3.58
2023-03-30T16:44:19.071Z,3.75
2023-03-30T16:46:47.769Z,3.80
2023-03-30T16:49:17.849Z,3.88
2023-03-30T16:51:46.567Z,3.38
2023-03-30T16:54:29.380Z,3.83
2023-03-30T16:57:01.279Z,3.90
2023-03-30T16:59:30.936Z,3.80
2023-03-30T17:02:00.134Z,4.38
2023-03-30T17:04:28.745Z,3.40
2023-03-30T17:06:57.220Z,3.60
2023-03-30T17:09:26.016Z,3.35
2023-03-30T17:11:54.492Z,3.88
2023-03-30T17:14:24.514Z,3.72
2023-03-30T17:16:52.950Z,3.92
2023-03-30T17:19:21.610Z,3.30
2023-03-30T17:21:50.321Z,3.53
2023-03-30T17:24:18.708Z,3.67
2023-03-30T17:26:47.109Z,3.70
2023-03-30T17:29:15.485Z,3.55
2023-03-30T17:31:45.975Z,3.70
2023-03-30T17:34:15.023Z,3.30
2023-03-30T17:36:43.632Z,3.72
2023-03-30T17:39:15.684Z,3.70
2023-03-30T17:41:44.341Z,4.82
2023-03-30T17:44:12.560Z,3.58
2023-03-30T17:46:42.788Z,3.40
2023-03-30T17:49:18.190Z,3.85
2023-03-30T17:51:47.146Z,3.45
2023-03-30T17:54:15.694Z,3.42
2023-03-30T17:56:44.183Z,4.22
2023-03-30T17:59:13.171Z,4.03
2023-03-30T18:01:41.677Z,3.85
2023-03-30T18:04:10.067Z,3.75
2023-03-30T18:06:40.700Z,3.35
2023-03-30T18:09:16.824Z,4.15
2023-03-30T18:11:45.242Z,3.95
2023-03-30T18:14:13.570Z,4.28
2023-03-30T18:16:43.787Z,4.43
2023-03-30T18:19:12.621Z,3.90
2023-03-30T18:21:42.245Z,4.53
2023-03-30T18:24:10.778Z,4.50
2023-03-30T18:26:40.900Z,6.05
2023-03-30T18:29:20.334Z,5.68
2023-03-30T18:31:49.444Z,4.25
2023-03-30T18:34:19.530Z,4.40
2023-03-30T18:36:49.211Z,4.13
2023-03-30T18:39:21.406Z,4.55
2023-03-30T18:41:49.685Z,3.92
2023-03-30T18:44:18.085Z,5.25
2023-03-30T18:46:50.682Z,3.88
2023-03-30T18:49:23.366Z,3.55
2023-03-30T18:51:53.347Z,3.65
2023-03-30T18:54:21.618Z,4.10
2023-03-30T18:56:49.994Z,3.88
2023-03-30T18:59:22.894Z,3.40
2023-03-30T19:01:51.418Z,4.20
2023-03-30T19:04:19.853Z,3.40
2023-03-30T19:06:48.061Z,3.50
2023-03-30T19:09:17.861Z,3.10
2023-03-30T19:11:46.123Z,3.50
2023-03-30T19:14:14.530Z,3.08
2023-03-30T19:16:43.123Z,2.83
2023-03-30T19:19:14.871Z,2.95
2023-03-30T19:21:46.132Z,3.22
2023-03-30T19:24:14.442Z,2.97
2023-03-30T19:26:44.057Z,2.65
2023-03-30T19:29:12.950Z,2.45
2023-03-30T19:31:41.326Z,2.45
2023-03-30T19:34:09.709Z,3.05
2023-03-30T19:36:38.073Z,2.70
2023-03-30T19:39:06.523Z,3.08
2023-03-30T19:41:34.889Z,3.60
2023-03-30T19:44:04.486Z,3.25
2023-03-30T19:46:32.789Z,2.72
2023-03-30T19:49:01.295Z,3.28
2023-03-30T19:51:29.635Z,3.85
2023-03-30T19:53:58.425Z,3.10
2023-03-30T19:56:27.039Z,2.80
2023-03-30T19:58:55.229Z,3.03
2023-03-30T20:01:24.869Z,2.60
2023-03-30T20:03:53.261Z,3.08
2023-03-30T20:06:21.720Z,3.30
2023-03-30T20:08:49.913Z,2.88
2023-03-30T20:11:19.024Z,2.88
2023-03-30T20:13:47.855Z,3.13
2023-03-30T20:16:20.403Z,14.60
2023-03-30T20:18:51.783Z,52.70
2023-03-30T20:21:21.362Z,61.60
2023-03-30T20:23:49.816Z,99.57
2023-03-30T20:26:19.545Z,70.28
2023-03-30T20:28:48.406Z,78.38
2023-03-30T20:31:17.566Z,61.35
2023-03-30T20:33:48.358Z,43.78
2023-03-30T20:36:18.189Z,30.38
2023-03-30T20:38:46.905Z,92.47
2023-03-30T20:41:15.599Z,129.02
2023-03-30T20:43:56.281Z,190.98
2023-03-30T20:46:26.118Z,140.43
2023-03-30T20:48:55.113Z,109.90
2023-03-30T20:51:25.245Z,96.20
2023-03-30T20:53:53.466Z,79.13
2023-03-30T20:56:21.885Z,126.32
2023-03-30T20:58:50.455Z,125.47
2023-03-30T21:01:25.271Z,134.63
2023-03-30T21:03:57.610Z,107.20
2023-03-30T21:06:29.050Z,104.22
2023-03-30T21:09:00.146Z,86.05
2023-03-30T21:11:29.885Z,60.30
2023-03-30T21:13:58.641Z,102.47
2023-03-30T21:16:27.450Z,178.40
2023-03-30T21:18:55.849Z,204.05
2023-03-30T21:21:24.246Z,229.02
2023-03-30T21:23:53.999Z,188.35
2023-03-30T21:26:23.185Z,124.70
2023-03-30T21:28:51.606Z,91.53
2023-03-30T21:31:19.869Z,81.28
2023-03-30T21:33:48.236Z,78.35
2023-03-30T21:36:16.611Z,68.15
2023-03-30T21:38:45.105Z,60.90
2023-03-30T21:41:16.938Z,49.53
2023-03-30T21:43:47.312Z,44.75
2023-03-30T21:46:17.085Z,40.17
2023-03-30T21:48:47.087Z,33.92
2023-03-30T21:51:17.885Z,34.90
2023-03-30T21:53:48.304Z,31.37
2023-03-30T21:56:18.810Z,23.83
2023-03-30T21:58:47.128Z,18.27
2023-03-30T22:01:16.204Z,15.00
2023-03-30T22:03:45.735Z,12.43
2023-03-30T22:06:16.090Z,10.15
2023-03-30T22:08:46.068Z,9.02
2023-03-30T22:11:15.945Z,7.75
2023-03-30T22:13:47.593Z,6.68
2023-03-30T22:16:18.705Z,5.40
2023-03-30T22:18:47.685Z,5.07
2023-03-30T22:21:18.287Z,4.10
2023-03-30T22:23:46.884Z,4.03
2023-03-30T22:26:15.846Z,3.60
2023-03-30T22:28:45.806Z,4.13
2023-03-30T22:31:15.924Z,3.28
2023-03-30T22:33:44.549Z,2.95
2023-03-30T22:36:18.922Z,2.85
2023-03-30T22:38:47.519Z,2.85
2023-03-30T22:41:15.994Z,3.20
2023-03-30T22:43:46.864Z,2.88
2023-03-30T22:46:15.181Z,2.70
2023-03-30T22:48:45.262Z,2.67
2023-03-30T22:51:14.612Z,3.03
2023-03-30T22:53:42.969Z,3.05
2023-03-30T22:56:11.782Z,2.50
2023-03-30T22:58:40.453Z,2.80
2023-03-30T23:01:11.216Z,3.08
2023-03-30T23:03:39.993Z,3.00
2023-03-30T23:06:09.351Z,2.63
2023-03-30T23:08:39.341Z,3.08
2023-03-30T23:11:08.183Z,2.90
2023-03-30T23:13:38.202Z,3.05
2023-03-30T23:16:08.440Z,2.67
2023-03-30T23:18:38.805Z,3.15
2023-03-30T23:21:07.824Z,2.95
2023-03-30T23:23:36.905Z,3.33
2023-03-30T23:26:09.714Z,3.08
2023-03-30T23:28:39.820Z,3.10
2023-03-30T23:31:09.220Z,3.28
2023-03-30T23:33:38.936Z,3.35
2023-03-30T23:36:08.314Z,3.67
2023-03-30T23:38:37.750Z,3.03
2023-03-30T23:41:06.913Z,3.75
2023-03-30T23:43:35.289Z,3.28
2023-03-30T23:46:03.938Z,3.10
2023-03-30T23:48:32.575Z,3.50
2023-03-30T23:51:02.239Z,3.65
2023-03-30T23:53:30.838Z,3.90
2023-03-30T23:55:59.811Z,3.70
2023-03-30T23:58:28.101Z,3.78
